sensor_id;sensor_type;location;lat;lon;timestamp;temperature;humidity
64670;DHT22;51080;51.690;5.174;2022-11-06T00:00:41;9.20;82.00
64670;DHT22;51080;51.690;5.174;2022-11-06T00:06:32;9.20;82.00
64670;DHT22;51080;51.690;5.174;2022-11-06T00:12:20;9.20;82.10
64670;DHT22;51080;51.690;5.174;2022-11-06T00:18:10;9.20;82.00
64670;DHT22;51080;51.690;5.174;2022-11-06T00:24:02;9.20;82.70
64670;DHT22;51080;51.690;5.174;2022-11-06T00:29:50;9.10;82.80
64670;DHT22;51080;51.690;5.174;2022-11-06T00:35:41;9.20;82.20
64670;DHT22;51080;51.690;5.174;2022-11-06T00:41:29;9.10;82.60
64670;DHT22;51080;51.690;5.174;2022-11-06T00:47:19;9.20;82.70
64670;DHT22;51080;51.690;5.174;2022-11-06T00:53:07;9.10;82.60
64670;DHT22;51080;51.690;5.174;2022-11-06T00:59:00;9.10;82.70
64670;DHT22;51080;51.690;5.174;2022-11-06T01:04:50;9.10;83.10
64670;DHT22;51080;51.690;5.174;2022-11-06T01:10:39;9.10;82.50
64670;DHT22;51080;51.690;5.174;2022-11-06T01:16:27;9.10;82.50
64670;DHT22;51080;51.690;5.174;2022-11-06T01:22:18;9.20;82.60
64670;DHT22;51080;51.690;5.174;2022-11-06T01:28:09;9.20;82.60
64670;DHT22;51080;51.690;5.174;2022-11-06T01:34:01;9.30;82.50
64670;DHT22;51080;51.690;5.174;2022-11-06T01:39:50;9.30;82.50
64670;DHT22;51080;51.690;5.174;2022-11-06T01:45:53;9.40;82.50
64670;DHT22;51080;51.690;5.174;2022-11-06T01:51:49;9.40;82.40
64670;DHT22;51080;51.690;5.174;2022-11-06T01:57:39;9.50;81.90
64670;DHT22;51080;51.690;5.174;2022-11-06T02:03:29;9.50;81.60
64670;DHT22;51080;51.690;5.174;2022-11-06T02:28:25;9.70;81.80
64670;DHT22;51080;51.690;5.174;2022-11-06T02:34:23;9.80;81.50
64670;DHT22;51080;51.690;5.174;2022-11-06T02:40:16;9.80;81.30
64670;DHT22;51080;51.690;5.174;2022-11-06T02:46:12;9.80;81.70
64670;DHT22;51080;51.690;5.174;2022-11-06T03:23:54;10.10;80.70
64670;DHT22;51080;51.690;5.174;2022-11-06T03:36:18;10.10;80.60
64670;DHT22;51080;51.690;5.174;2022-11-06T03:42:14;10.10;80.20
64670;DHT22;51080;51.690;5.174;2022-11-06T03:54:32;10.10;80.70
64670;DHT22;51080;51.690;5.174;2022-11-06T04:00:21;10.10;80.20
64670;DHT22;51080;51.690;5.174;2022-11-06T04:06:17;10.10;80.30
64670;DHT22;51080;51.690;5.174;2022-11-06T04:12:21;9.90;80.50
64670;DHT22;51080;51.690;5.174;2022-11-06T04:18:18;9.90;80.90
64670;DHT22;51080;51.690;5.174;2022-11-06T04:24:22;9.90;80.60
64670;DHT22;51080;51.690;5.174;2022-11-06T04:30:15;9.80;80.60
64670;DHT22;51080;51.690;5.174;2022-11-06T04:36:31;9.80;80.90
64670;DHT22;51080;51.690;5.174;2022-11-06T04:42:28;9.70;81.40
64670;DHT22;51080;51.690;5.174;2022-11-06T04:48:23;9.70;81.50
64670;DHT22;51080;51.690;5.174;2022-11-06T04:54:16;9.70;81.50
64670;DHT22;51080;51.690;5.174;2022-11-06T05:00:12;9.60;81.70
64670;DHT22;51080;51.690;5.174;2022-11-06T05:12:25;9.60;81.90
64670;DHT22;51080;51.690;5.174;2022-11-06T05:18:17;9.70;81.40
64670;DHT22;51080;51.690;5.174;2022-11-06T05:24:07;9.70;81.50
64670;DHT22;51080;51.690;5.174;2022-11-06T05:29:56;9.70;81.70
64670;DHT22;51080;51.690;5.174;2022-11-06T05:35:47;9.60;82.00
64670;DHT22;51080;51.690;5.174;2022-11-06T05:41:38;9.50;82.00
64670;DHT22;51080;51.690;5.174;2022-11-06T05:47:28;9.50;82.40
64670;DHT22;51080;51.690;5.174;2022-11-06T05:53:17;9.50;82.10
64670;DHT22;51080;51.690;5.174;2022-11-06T05:59:07;9.50;82.40
64670;DHT22;51080;51.690;5.174;2022-11-06T06:04:56;9.50;82.80
64670;DHT22;51080;51.690;5.174;2022-11-06T06:10:42;9.50;82.60
64670;DHT22;51080;51.690;5.174;2022-11-06T06:16:25;9.60;82.50
64670;DHT22;51080;51.690;5.174;2022-11-06T06:22:09;9.60;82.90
64670;DHT22;51080;51.690;5.174;2022-11-06T06:27:53;9.70;82.90
64670;DHT22;51080;51.690;5.174;2022-11-06T06:33:37;9.70;82.60
64670;DHT22;51080;51.690;5.174;2022-11-06T06:39:20;9.70;82.50
64670;DHT22;51080;51.690;5.174;2022-11-06T06:45:05;9.80;82.50
64670;DHT22;51080;51.690;5.174;2022-11-06T06:50:49;9.80;82.50
64670;DHT22;51080;51.690;5.174;2022-11-06T06:56:33;9.90;82.30
64670;DHT22;51080;51.690;5.174;2022-11-06T07:02:16;9.90;82.40
64670;DHT22;51080;51.690;5.174;2022-11-06T07:08:01;9.90;82.20
64670;DHT22;51080;51.690;5.174;2022-11-06T07:13:44;10.00;82.00
64670;DHT22;51080;51.690;5.174;2022-11-06T07:19:57;10.00;81.90
64670;DHT22;51080;51.690;5.174;2022-11-06T07:25:41;10.10;81.70
64670;DHT22;51080;51.690;5.174;2022-11-06T07:31:25;10.10;81.60
64670;DHT22;51080;51.690;5.174;2022-11-06T07:37:09;10.10;81.50
64670;DHT22;51080;51.690;5.174;2022-11-06T07:42:53;10.00;81.70
64670;DHT22;51080;51.690;5.174;2022-11-06T07:48:36;10.00;81.60
64670;DHT22;51080;51.690;5.174;2022-11-06T07:54:51;9.90;81.80
64670;DHT22;51080;51.690;5.174;2022-11-06T08:01:14;9.90;82.00
64670;DHT22;51080;51.690;5.174;2022-11-06T08:07:30;10.00;82.10
64670;DHT22;51080;51.690;5.174;2022-11-06T08:13:15;10.10;81.90
64670;DHT22;51080;51.690;5.174;2022-11-06T08:19:01;10.10;81.90
64670;DHT22;51080;51.690;5.174;2022-11-06T08:24:47;10.20;81.80
64670;DHT22;51080;51.690;5.174;2022-11-06T08:30:31;10.30;81.70
64670;DHT22;51080;51.690;5.174;2022-11-06T08:36:16;10.40;81.50
64670;DHT22;51080;51.690;5.174;2022-11-06T08:42:31;10.60;81.30
64670;DHT22;51080;51.690;5.174;2022-11-06T08:48:15;10.60;80.90
64670;DHT22;51080;51.690;5.174;2022-11-06T08:53:59;10.70;80.60
64670;DHT22;51080;51.690;5.174;2022-11-06T08:59:44;10.80;80.50
64670;DHT22;51080;51.690;5.174;2022-11-06T09:05:29;10.90;80.40
64670;DHT22;51080;51.690;5.174;2022-11-06T09:11:14;11.00;80.10
64670;DHT22;51080;51.690;5.174;2022-11-06T09:16:59;11.20;79.80
64670;DHT22;51080;51.690;5.174;2022-11-06T09:22:43;11.40;78.90
64670;DHT22;51080;51.690;5.174;2022-11-06T09:28:28;11.70;78.40
64670;DHT22;51080;51.690;5.174;2022-11-06T09:34:13;11.90;77.40
64670;DHT22;51080;51.690;5.174;2022-11-06T09:39:57;12.20;77.00
64670;DHT22;51080;51.690;5.174;2022-11-06T09:45:43;12.20;76.10
64670;DHT22;51080;51.690;5.174;2022-11-06T10:03:46;12.30;75.00
64670;DHT22;51080;51.690;5.174;2022-11-06T10:09:38;12.30;75.80
64670;DHT22;51080;51.690;5.174;2022-11-06T10:15:29;12.40;75.70
64670;DHT22;51080;51.690;5.174;2022-11-06T10:21:24;12.40;75.00
64670;DHT22;51080;51.690;5.174;2022-11-06T10:33:27;12.60;74.20
64670;DHT22;51080;51.690;5.174;2022-11-06T10:39:18;12.70;73.60
64670;DHT22;51080;51.690;5.174;2022-11-06T10:45:13;12.70;73.70
64670;DHT22;51080;51.690;5.174;2022-11-06T11:03:33;13.20;70.90
64670;DHT22;51080;51.690;5.174;2022-11-06T11:09:27;13.20;71.80
64670;DHT22;51080;51.690;5.174;2022-11-06T11:15:15;13.30;71.40
64670;DHT22;51080;51.690;5.174;2022-11-06T11:27:01;13.40;70.50
64670;DHT22;51080;51.690;5.174;2022-11-06T11:32:48;13.50;71.20
64670;DHT22;51080;51.690;5.174;2022-11-06T11:38:37;13.40;70.20
64670;DHT22;51080;51.690;5.174;2022-11-06T11:45:13;13.30;70.30
64670;DHT22;51080;51.690;5.174;2022-11-06T11:51:35;13.30;69.30
64670;DHT22;51080;51.690;5.174;2022-11-06T11:57:23;13.30;70.10
64670;DHT22;51080;51.690;5.174;2022-11-06T12:03:11;13.30;70.80
64670;DHT22;51080;51.690;5.174;2022-11-06T12:08:56;13.30;70.30
64670;DHT22;51080;51.690;5.174;2022-11-06T12:14:39;13.30;70.40
64670;DHT22;51080;51.690;5.174;2022-11-06T12:20:28;13.30;70.10
64670;DHT22;51080;51.690;5.174;2022-11-06T12:26:42;13.30;69.90
64670;DHT22;51080;51.690;5.174;2022-11-06T12:38:43;12.80;71.50
64670;DHT22;51080;51.690;5.174;2022-11-06T12:44:29;12.80;70.40
64670;DHT22;51080;51.690;5.174;2022-11-06T12:50:27;12.80;70.70
64670;DHT22;51080;51.690;5.174;2022-11-06T12:56:23;12.70;69.40
64670;DHT22;51080;51.690;5.174;2022-11-06T13:14:19;12.20;72.10
64670;DHT22;51080;51.690;5.174;2022-11-06T13:20:20;12.00;73.60
64670;DHT22;51080;51.690;5.174;2022-11-06T13:32:02;11.50;75.40
64670;DHT22;51080;51.690;5.174;2022-11-06T13:37:49;11.30;76.60
64670;DHT22;51080;51.690;5.174;2022-11-06T13:43:40;11.10;77.70
64670;DHT22;51080;51.690;5.174;2022-11-06T13:49:45;10.90;79.00
64670;DHT22;51080;51.690;5.174;2022-11-06T13:55:49;10.60;80.90
64670;DHT22;51080;51.690;5.174;2022-11-06T14:01:55;10.30;82.70
64670;DHT22;51080;51.690;5.174;2022-11-06T14:07:46;10.10;84.80
64670;DHT22;51080;51.690;5.174;2022-11-06T14:14:00;10.00;84.60
64670;DHT22;51080;51.690;5.174;2022-11-06T14:26:10;9.70;85.90
64670;DHT22;51080;51.690;5.174;2022-11-06T14:44:19;9.50;85.70
64670;DHT22;51080;51.690;5.174;2022-11-06T14:50:23;9.40;86.50
64670;DHT22;51080;51.690;5.174;2022-11-06T14:56:18;9.30;87.40
64670;DHT22;51080;51.690;5.174;2022-11-06T15:08:02;9.10;88.50
64670;DHT22;51080;51.690;5.174;2022-11-06T15:13:45;9.10;89.20
64670;DHT22;51080;51.690;5.174;2022-11-06T15:25:27;8.90;88.20
64670;DHT22;51080;51.690;5.174;2022-11-06T15:31:13;8.80;87.30
64670;DHT22;51080;51.690;5.174;2022-11-06T15:37:11;8.70;88.00
64670;DHT22;51080;51.690;5.174;2022-11-06T15:42:59;8.60;89.10
64670;DHT22;51080;51.690;5.174;2022-11-06T15:48:45;8.60;88.90
64670;DHT22;51080;51.690;5.174;2022-11-06T15:54:38;8.50;88.50
64670;DHT22;51080;51.690;5.174;2022-11-06T16:00:24;8.50;88.10
64670;DHT22;51080;51.690;5.174;2022-11-06T16:06:09;8.40;88.80
64670;DHT22;51080;51.690;5.174;2022-11-06T16:11:53;8.40;87.80
64670;DHT22;51080;51.690;5.174;2022-11-06T16:17:38;8.30;87.70
64670;DHT22;51080;51.690;5.174;2022-11-06T16:29:24;8.20;88.00
64670;DHT22;51080;51.690;5.174;2022-11-06T16:35:35;8.10;87.90
64670;DHT22;51080;51.690;5.174;2022-11-06T16:41:35;8.10;88.20
64670;DHT22;51080;51.690;5.174;2022-11-06T16:47:16;8.10;88.30
64670;DHT22;51080;51.690;5.174;2022-11-06T16:53:03;8.00;89.10
64670;DHT22;51080;51.690;5.174;2022-11-06T16:59:02;8.00;88.80
64670;DHT22;51080;51.690;5.174;2022-11-06T17:05:14;7.90;88.70
64670;DHT22;51080;51.690;5.174;2022-11-06T17:11:16;7.90;89.00
64670;DHT22;51080;51.690;5.174;2022-11-06T17:17:05;7.90;89.10
64670;DHT22;51080;51.690;5.174;2022-11-06T17:22:55;7.90;88.70
64670;DHT22;51080;51.690;5.174;2022-11-06T17:28:44;7.90;89.00
64670;DHT22;51080;51.690;5.174;2022-11-06T17:34:36;7.90;88.80
64670;DHT22;51080;51.690;5.174;2022-11-06T17:40:23;8.00;88.80
64670;DHT22;51080;51.690;5.174;2022-11-06T17:46:12;8.00;88.80
64670;DHT22;51080;51.690;5.174;2022-11-06T17:51:59;8.00;88.60
64670;DHT22;51080;51.690;5.174;2022-11-06T17:57:48;8.00;88.70
64670;DHT22;51080;51.690;5.174;2022-11-06T18:03:43;8.10;89.20
64670;DHT22;51080;51.690;5.174;2022-11-06T18:09:35;8.20;88.60
64670;DHT22;51080;51.690;5.174;2022-11-06T18:15:24;8.20;88.00
64670;DHT22;51080;51.690;5.174;2022-11-06T18:21:12;8.20;88.00
64670;DHT22;51080;51.690;5.174;2022-11-06T18:27:18;8.20;87.50
64670;DHT22;51080;51.690;5.174;2022-11-06T18:33:17;8.20;87.90
64670;DHT22;51080;51.690;5.174;2022-11-06T18:39:07;8.30;88.50
64670;DHT22;51080;51.690;5.174;2022-11-06T18:44:55;8.30;88.40
64670;DHT22;51080;51.690;5.174;2022-11-06T18:50:44;8.40;88.00
64670;DHT22;51080;51.690;5.174;2022-11-06T18:56:32;8.40;88.20
64670;DHT22;51080;51.690;5.174;2022-11-06T19:02:22;8.40;88.00
64670;DHT22;51080;51.690;5.174;2022-11-06T19:08:10;8.50;88.40
64670;DHT22;51080;51.690;5.174;2022-11-06T19:13:59;8.50;88.40
64670;DHT22;51080;51.690;5.174;2022-11-06T19:19:47;8.60;88.90
64670;DHT22;51080;51.690;5.174;2022-11-06T19:25:39;8.60;90.50
64670;DHT22;51080;51.690;5.174;2022-11-06T19:31:28;8.60;90.70
64670;DHT22;51080;51.690;5.174;2022-11-06T19:37:17;8.60;90.70
64670;DHT22;51080;51.690;5.174;2022-11-06T19:43:06;8.70;91.00
64670;DHT22;51080;51.690;5.174;2022-11-06T19:48:57;8.80;91.00
64670;DHT22;51080;51.690;5.174;2022-11-06T19:54:44;8.90;91.10
64670;DHT22;51080;51.690;5.174;2022-11-06T20:00:36;8.90;91.40
64670;DHT22;51080;51.690;5.174;2022-11-06T20:06:26;9.00;91.50
64670;DHT22;51080;51.690;5.174;2022-11-06T20:12:15;9.10;91.10
64670;DHT22;51080;51.690;5.174;2022-11-06T20:18:05;9.20;91.30
64670;DHT22;51080;51.690;5.174;2022-11-06T20:23:57;9.30;90.90
64670;DHT22;51080;51.690;5.174;2022-11-06T20:29:46;9.40;90.50
64670;DHT22;51080;51.690;5.174;2022-11-06T20:35:38;9.40;90.50
64670;DHT22;51080;51.690;5.174;2022-11-06T20:41:37;9.50;90.40
64670;DHT22;51080;51.690;5.174;2022-11-06T20:47:27;9.60;90.10
64670;DHT22;51080;51.690;5.174;2022-11-06T20:53:16;9.70;89.50
64670;DHT22;51080;51.690;5.174;2022-11-06T20:59:05;9.70;89.60
64670;DHT22;51080;51.690;5.174;2022-11-06T21:04:57;9.60;90.00
64670;DHT22;51080;51.690;5.174;2022-11-06T21:16:50;9.80;89.70
64670;DHT22;51080;51.690;5.174;2022-11-06T21:22:43;9.90;89.10
64670;DHT22;51080;51.690;5.174;2022-11-06T21:28:35;9.90;89.30
64670;DHT22;51080;51.690;5.174;2022-11-06T21:34:24;9.90;89.00
64670;DHT22;51080;51.690;5.174;2022-11-06T21:40:13;10.00;89.30
64670;DHT22;51080;51.690;5.174;2022-11-06T21:46:03;10.00;89.00
64670;DHT22;51080;51.690;5.174;2022-11-06T21:52:01;10.00;89.10
64670;DHT22;51080;51.690;5.174;2022-11-06T21:57:52;10.10;89.00
64670;DHT22;51080;51.690;5.174;2022-11-06T22:03:43;10.20;88.60
64670;DHT22;51080;51.690;5.174;2022-11-06T22:09:34;10.20;88.20
64670;DHT22;51080;51.690;5.174;2022-11-06T22:15:24;10.20;88.40
64670;DHT22;51080;51.690;5.174;2022-11-06T22:21:17;10.20;88.20
64670;DHT22;51080;51.690;5.174;2022-11-06T22:27:09;10.20;88.30
64670;DHT22;51080;51.690;5.174;2022-11-06T22:32:59;10.10;88.40
64670;DHT22;51080;51.690;5.174;2022-11-06T22:38:51;10.10;88.60
64670;DHT22;51080;51.690;5.174;2022-11-06T22:44:41;10.10;88.80
64670;DHT22;51080;51.690;5.174;2022-11-06T22:50:29;10.20;88.90
64670;DHT22;51080;51.690;5.174;2022-11-06T22:56:23;10.20;88.70
64670;DHT22;51080;51.690;5.174;2022-11-06T23:02:13;10.20;88.70
64670;DHT22;51080;51.690;5.174;2022-11-06T23:08:05;10.20;88.80
64670;DHT22;51080;51.690;5.174;2022-11-06T23:13:54;10.30;88.70
64670;DHT22;51080;51.690;5.174;2022-11-06T23:19:44;10.40;88.50
64670;DHT22;51080;51.690;5.174;2022-11-06T23:25:35;10.40;88.20
64670;DHT22;51080;51.690;5.174;2022-11-06T23:31:25;10.40;88.20
64670;DHT22;51080;51.690;5.174;2022-11-06T23:37:15;10.50;87.80
64670;DHT22;51080;51.690;5.174;2022-11-06T23:43:03;10.50;87.40
64670;DHT22;51080;51.690;5.174;2022-11-06T23:48:57;10.50;87.20
64670;DHT22;51080;51.690;5.174;2022-11-06T23:54:45;10.60;87.30
